Paramaribo, Suriname
Current Conditions -  °F | °C
As of 6:36 AM on Friday 24 Oct 2014 (Local Time) from SMJP Reporting Station
Moderate Fog Moderate Fog  
Wind Chill: 75°   Ceiling: 200
Heat Index: 75°   Visibility: 0.37mi
Dew Point: 75°   Wind: 2mph
Humidity: 100%   Direction: 130°SE
Pressure: 29.85"   Gusts: NA
Location:  5.45°N, 55.2°W
Report Text: SMJP 240936Z 13002KT 0600 FG BKN002 24/24 Q1011 TEMPO1200 BR
Loading
Personal Weather Stations






























Interactive Weather Map
Tropical Storm Tracking
New forecast layout! Learn more

10-Day Weather Forecast

Advertisements
Track Severe Weather on mobile